createdAt,value
2018-08-16T00:01:37.604Z,13.45
2018-08-16T00:04:06.021Z,13.50
2018-08-16T00:06:34.684Z,13.55
2018-08-16T00:09:03.265Z,13.52
2018-08-16T00:11:31.608Z,13.57
2018-08-16T00:13:59.999Z,13.51
2018-08-16T00:16:28.357Z,13.46
2018-08-16T00:18:56.716Z,13.71
2018-08-16T00:21:25.083Z,13.69
2018-08-16T00:23:53.456Z,13.59
2018-08-16T00:26:21.836Z,13.54
2018-08-16T00:28:50.237Z,13.36
2018-08-16T00:31:18.616Z,13.33
2018-08-16T00:33:46.995Z,13.29
2018-08-16T00:36:15.332Z,13.32
2018-08-16T00:38:43.721Z,13.41
2018-08-16T00:41:12.060Z,13.45
2018-08-16T00:43:40.666Z,13.46
2018-08-16T00:46:09.044Z,13.46
2018-08-16T00:48:37.440Z,13.47
2018-08-16T00:51:06.888Z,13.54
2018-08-16T00:53:35.960Z,13.59
2018-08-16T00:56:04.348Z,13.53
2018-08-16T00:58:32.724Z,13.55
2018-08-16T01:01:01.084Z,13.61
2018-08-16T01:03:29.517Z,13.60
2018-08-16T01:05:57.891Z,13.67
2018-08-16T01:08:26.280Z,13.64
2018-08-16T01:10:54.632Z,13.52
2018-08-16T01:13:23.367Z,13.56
2018-08-16T01:15:51.727Z,13.54
2018-08-16T01:18:20.101Z,13.61
2018-08-16T01:20:48.757Z,13.63
2018-08-16T01:23:17.172Z,13.60
2018-08-16T01:25:46.008Z,13.50
2018-08-16T01:28:14.408Z,13.44
2018-08-16T01:30:43.105Z,13.45
2018-08-16T01:33:11.493Z,13.33
2018-08-16T01:35:40.134Z,13.35
2018-08-16T01:38:08.505Z,13.29
2018-08-16T01:40:37.816Z,13.32
2018-08-16T01:43:06.628Z,13.34
2018-08-16T01:45:35.432Z,13.25
2018-08-16T01:48:03.796Z,13.35
2018-08-16T01:50:32.136Z,13.22
2018-08-16T01:53:00.535Z,13.27
2018-08-16T01:55:28.876Z,13.25
2018-08-16T01:57:57.740Z,13.22
2018-08-16T02:00:26.112Z,13.33
2018-08-16T02:02:54.524Z,13.27
2018-08-16T02:05:22.939Z,13.29
2018-08-16T02:07:51.296Z,13.25
2018-08-16T02:10:19.932Z,13.12
2018-08-16T02:12:48.336Z,12.89
2018-08-16T02:15:16.724Z,12.79
2018-08-16T02:17:45.162Z,12.67
2018-08-16T02:20:14.664Z,12.64
2018-08-16T02:22:43.792Z,12.75
2018-08-16T02:25:12.818Z,12.72
2018-08-16T02:27:41.557Z,12.70
2018-08-16T02:30:10.637Z,12.73
2018-08-16T02:32:39.858Z,12.86
2018-08-16T02:35:08.756Z,12.77
2018-08-16T02:37:37.111Z,12.74
2018-08-16T02:40:06.779Z,12.78
2018-08-16T02:42:35.149Z,12.67
2018-08-16T02:45:03.525Z,12.71
2018-08-16T02:47:31.855Z,12.70
2018-08-16T02:50:00.200Z,12.69
2018-08-16T02:52:28.839Z,12.67
2018-08-16T02:54:57.184Z,12.72
2018-08-16T02:57:26.076Z,12.62
2018-08-16T02:59:54.436Z,12.55
2018-08-16T03:02:22.804Z,12.52
2018-08-16T03:04:51.460Z,12.59
2018-08-16T03:07:19.824Z,12.47
2018-08-16T03:09:48.440Z,12.44
2018-08-16T03:12:16.819Z,12.42
2018-08-16T03:14:45.184Z,12.41
2018-08-16T03:17:13.539Z,12.37
2018-08-16T03:19:41.932Z,12.39
2018-08-16T03:22:10.884Z,12.51
2018-08-16T03:24:39.256Z,12.33
2018-08-16T03:27:07.915Z,12.47
2018-08-16T03:29:36.300Z,12.34
2018-08-16T03:32:04.953Z,12.31
2018-08-16T03:34:33.336Z,12.32
2018-08-16T03:37:02.408Z,12.28
2018-08-16T03:39:30.763Z,12.18
2018-08-16T03:41:59.408Z,12.13
2018-08-16T03:44:27.776Z,12.16
2018-08-16T03:46:56.125Z,12.22
2018-08-16T03:49:24.498Z,12.20
2018-08-16T03:51:53.076Z,12.42
2018-08-16T03:54:21.467Z,12.37
2018-08-16T03:56:49.832Z,12.39
2018-08-16T03:59:18.202Z,12.40
2018-08-16T04:01:46.552Z,12.34
2018-08-16T04:04:15.205Z,12.32
2018-08-16T04:06:43.783Z,12.24
2018-08-16T04:09:12.128Z,12.16
2018-08-16T04:11:40.480Z,12.12
2018-08-16T04:14:09.236Z,12.13
2018-08-16T04:16:37.960Z,12.11
2018-08-16T04:19:06.688Z,12.15
2018-08-16T04:21:35.055Z,12.09
2018-08-16T04:24:03.540Z,12.16
2018-08-16T04:26:32.252Z,12.11
2018-08-16T04:29:01.607Z,12.27
2018-08-16T04:31:29.957Z,12.30
2018-08-16T04:33:58.589Z,12.33
2018-08-16T04:36:27.381Z,12.28
2018-08-16T04:38:55.728Z,12.42
2018-08-16T04:41:24.099Z,12.37
2018-08-16T04:43:52.403Z,12.46
2018-08-16T04:46:20.731Z,12.52
2018-08-16T04:48:49.107Z,12.47
2018-08-16T04:51:17.712Z,12.54
2018-08-16T04:53:46.843Z,12.57
2018-08-16T04:56:15.536Z,12.58
2018-08-16T04:58:43.955Z,12.61
2018-08-16T05:01:12.317Z,12.65
2018-08-16T05:03:40.949Z,12.63
2018-08-16T05:06:09.600Z,12.72
2018-08-16T05:08:38.021Z,12.77
2018-08-16T05:11:06.460Z,12.87
2018-08-16T05:13:35.272Z,12.98
2018-08-16T05:16:03.881Z,12.94
2018-08-16T05:18:32.260Z,12.97
2018-08-16T05:21:00.644Z,13.07
2018-08-16T05:23:29.034Z,13.21
2018-08-16T05:25:57.800Z,13.25
2018-08-16T05:28:26.181Z,13.31
2018-08-16T05:30:54.893Z,13.38
2018-08-16T05:33:23.261Z,13.34
2018-08-16T05:35:52.371Z,13.43
2018-08-16T05:38:20.756Z,13.53
2018-08-16T05:40:49.148Z,13.69
2018-08-16T05:43:17.529Z,13.83
2018-08-16T05:45:46.592Z,13.94
2018-08-16T05:48:14.932Z,14.12
2018-08-16T05:50:43.350Z,14.53
2018-08-16T05:53:11.709Z,15.82
2018-08-16T05:55:40.101Z,17.29
2018-08-16T05:58:08.493Z,18.45
2018-08-16T06:00:36.923Z,18.91
2018-08-16T06:03:05.366Z,18.15
2018-08-16T06:05:33.744Z,17.56
2018-08-16T06:08:02.068Z,17.39
2018-08-16T06:10:30.472Z,16.97
2018-08-16T06:12:58.845Z,17.00
2018-08-16T06:15:27.504Z,17.00
2018-08-16T06:17:55.860Z,17.18
2018-08-16T06:20:24.268Z,17.33
2018-08-16T06:22:52.653Z,17.36
2018-08-16T06:25:21.064Z,17.97
2018-08-16T06:27:49.403Z,19.96
2018-08-16T06:30:18.679Z,22.41
2018-08-16T06:32:47.870Z,24.07
2018-08-16T06:35:16.684Z,25.69
2018-08-16T06:37:45.052Z,27.31
2018-08-16T06:40:16.226Z,28.44
2018-08-16T06:42:45.231Z,28.62
2018-08-16T06:45:13.629Z,31.26
2018-08-16T06:47:42.328Z,31.17
2018-08-16T06:50:10.752Z,32.28
2018-08-16T06:52:39.182Z,31.44
2018-08-16T06:55:08.077Z,30.85
2018-08-16T06:57:36.481Z,27.31
2018-08-16T07:00:05.958Z,26.64
2018-08-16T07:02:34.377Z,28.28
2018-08-16T07:05:02.764Z,27.70
2018-08-16T07:07:31.175Z,28.48
2018-08-16T07:09:59.568Z,26.00
2018-08-16T07:12:28.085Z,25.40
2018-08-16T07:14:56.759Z,26.32
2018-08-16T07:17:25.145Z,27.59
2018-08-16T07:19:53.492Z,26.37
2018-08-16T07:22:21.839Z,25.94
2018-08-16T07:24:50.248Z,26.55
2018-08-16T07:27:19.480Z,26.06
2018-08-16T07:29:48.342Z,26.41
2018-08-16T07:32:16.689Z,26.48
2018-08-16T07:34:45.033Z,26.15
2018-08-16T07:37:13.408Z,28.90
2018-08-16T07:39:41.812Z,28.53
2018-08-16T07:42:10.199Z,27.24
2018-08-16T07:44:38.572Z,27.17
2018-08-16T07:47:07.154Z,26.68
2018-08-16T07:49:35.834Z,28.32
2018-08-16T07:52:05.516Z,28.73
2018-08-16T07:54:33.816Z,29.23
2018-08-16T07:57:02.259Z,30.16
2018-08-16T07:59:30.836Z,31.43
2018-08-16T08:01:59.236Z,32.32
2018-08-16T08:04:27.989Z,32.97
2018-08-16T08:06:56.400Z,32.00
2018-08-16T08:09:24.841Z,30.42
2018-08-16T08:11:53.117Z,30.70
2018-08-16T08:14:21.508Z,33.03
2018-08-16T08:16:49.867Z,34.45
2018-08-16T08:19:18.296Z,32.44
2018-08-16T08:21:47.064Z,31.71
2018-08-16T08:24:15.431Z,33.45
2018-08-16T08:26:43.772Z,32.55
2018-08-16T08:29:12.180Z,33.29
2018-08-16T08:31:40.707Z,33.84
2018-08-16T08:34:09.039Z,33.24
2018-08-16T08:36:48.435Z,33.34
2018-08-16T08:39:16.818Z,34.92
2018-08-16T08:41:46.268Z,32.50
2018-08-16T08:44:18.980Z,33.43
2018-08-16T08:46:48.777Z,34.51
2018-08-16T08:49:17.899Z,35.32
2018-08-16T08:51:46.469Z,36.11
2018-08-16T08:54:36.928Z,35.32
2018-08-16T08:57:16.364Z,38.02
2018-08-16T08:59:44.754Z,37.62
2018-08-16T09:02:13.461Z,38.98
2018-08-16T09:04:41.885Z,36.62
2018-08-16T09:07:12.920Z,34.34
2018-08-16T09:09:51.240Z,34.85
2018-08-16T09:12:30.760Z,37.27
2018-08-16T09:15:10.508Z,37.62
2018-08-16T09:17:38.896Z,38.23
2018-08-16T09:20:07.296Z,35.20
2018-08-16T09:22:35.640Z,37.84
2018-08-16T09:25:03.993Z,36.99
2018-08-16T09:27:32.344Z,37.68
2018-08-16T09:30:20.997Z,40.24
2018-08-16T09:33:00.376Z,40.94
2018-08-16T09:35:29.131Z,39.19
2018-08-16T09:37:57.829Z,38.39
2018-08-16T09:40:26.224Z,39.53
2018-08-16T09:42:54.596Z,39.60
2018-08-16T09:45:34.205Z,39.13
2018-08-16T09:48:14.137Z,36.91
2018-08-16T09:50:42.808Z,35.72
2018-08-16T09:53:11.164Z,37.77
2018-08-16T09:55:40.276Z,38.42
2018-08-16T09:58:08.668Z,39.51
2018-08-16T10:00:43.253Z,38.18
2018-08-16T10:03:11.600Z,39.73
2018-08-16T10:05:40.002Z,36.27
2018-08-16T10:08:08.428Z,37.47
2018-08-16T10:10:36.871Z,38.40
2018-08-16T10:13:05.329Z,39.52
2018-08-16T10:15:34.712Z,40.04
2018-08-16T10:18:03.545Z,41.15
2018-08-16T10:20:32.285Z,40.49
2018-08-16T10:23:00.696Z,38.32
2018-08-16T10:25:29.061Z,35.48
2018-08-16T10:27:57.430Z,34.37
2018-08-16T10:30:25.793Z,36.73
2018-08-16T10:32:54.152Z,36.47
2018-08-16T10:35:22.512Z,39.50
2018-08-16T10:37:50.836Z,40.11
2018-08-16T10:40:19.188Z,41.17
2018-08-16T10:42:47.552Z,39.21
2018-08-16T10:45:15.916Z,39.57
2018-08-16T10:47:44.263Z,40.70
2018-08-16T10:50:12.604Z,36.98
2018-08-16T10:52:42.612Z,38.53
2018-08-16T10:55:10.989Z,39.53
2018-08-16T10:57:39.501Z,41.15
2018-08-16T11:00:08.527Z,40.59
2018-08-16T11:02:38.369Z,38.42
2018-08-16T11:05:06.948Z,37.55
2018-08-16T11:07:36.090Z,40.37
2018-08-16T11:10:04.892Z,40.65
2018-08-16T11:12:33.245Z,42.86
2018-08-16T11:15:01.597Z,40.19
2018-08-16T11:17:30.574Z,40.76
2018-08-16T11:19:58.995Z,37.48
2018-08-16T11:22:27.346Z,37.51
2018-08-16T11:24:56.443Z,37.36
2018-08-16T11:27:24.791Z,38.98
2018-08-16T11:29:53.128Z,41.74
2018-08-16T11:32:21.496Z,40.23
2018-08-16T11:34:49.865Z,35.69
2018-08-16T11:37:18.233Z,36.21
2018-08-16T11:39:46.560Z,38.96
2018-08-16T11:42:14.896Z,38.27
2018-08-16T11:44:43.280Z,37.65
2018-08-16T11:47:11.635Z,38.00
2018-08-16T11:49:40.012Z,40.43
2018-08-16T11:52:08.392Z,39.07
2018-08-16T11:54:36.745Z,39.83
2018-08-16T11:57:05.489Z,40.04
2018-08-16T11:59:34.312Z,41.41
2018-08-16T12:02:03.447Z,39.36
2018-08-16T12:04:32.239Z,40.06
2018-08-16T12:07:00.628Z,38.81
2018-08-16T12:09:30.578Z,38.35
2018-08-16T12:11:58.989Z,39.27
2018-08-16T12:14:27.374Z,40.76
2018-08-16T12:16:56.736Z,42.42
2018-08-16T12:19:25.192Z,42.36
2018-08-16T12:21:53.512Z,40.24
2018-08-16T12:24:21.860Z,39.75
2018-08-16T12:26:50.192Z,41.01
2018-08-16T12:29:18.541Z,42.06
2018-08-16T12:31:46.918Z,40.09
2018-08-16T12:34:15.268Z,41.96
2018-08-16T12:36:43.604Z,40.12
2018-08-16T12:39:11.959Z,37.00
2018-08-16T12:41:40.311Z,37.78
2018-08-16T12:44:08.711Z,37.59
2018-08-16T12:46:37.269Z,38.30
2018-08-16T12:49:05.719Z,38.95
2018-08-16T12:51:34.250Z,40.67
2018-08-16T12:54:02.660Z,41.05
2018-08-16T12:56:31.054Z,38.45
2018-08-16T12:59:00.369Z,40.81
2018-08-16T13:01:28.800Z,39.71
2018-08-16T13:03:57.215Z,39.99
2018-08-16T13:06:25.577Z,41.09
2018-08-16T13:08:53.923Z,39.00
2018-08-16T13:11:22.424Z,39.36
2018-08-16T13:13:50.820Z,38.43
2018-08-16T13:16:19.187Z,40.73
2018-08-16T13:18:47.548Z,39.94
2018-08-16T13:21:15.924Z,39.87
2018-08-16T13:23:44.392Z,40.85
2018-08-16T13:26:12.669Z,39.38
2018-08-16T13:28:41.048Z,38.96
2018-08-16T13:31:09.497Z,40.26
2018-08-16T13:33:37.804Z,40.49
2018-08-16T13:36:06.186Z,40.66
2018-08-16T13:38:35.019Z,40.03
2018-08-16T13:41:03.402Z,40.86
2018-08-16T13:43:31.792Z,40.61
2018-08-16T13:46:00.165Z,39.98
2018-08-16T13:48:28.576Z,41.82
2018-08-16T13:50:56.848Z,40.17
2018-08-16T13:53:25.195Z,39.23
2018-08-16T13:55:53.552Z,39.01
2018-08-16T13:58:21.885Z,39.03
2018-08-16T14:00:50.233Z,40.06
2018-08-16T14:03:19.404Z,40.46
2018-08-16T14:05:47.790Z,40.19
2018-08-16T14:08:16.120Z,39.13
2018-08-16T14:10:46.343Z,39.68
2018-08-16T14:13:15.989Z,39.35
2018-08-16T14:15:44.476Z,38.51
2018-08-16T14:18:13.057Z,39.52
2018-08-16T14:20:41.459Z,40.05
2018-08-16T14:23:09.936Z,40.31
2018-08-16T14:25:38.485Z,39.67
2018-08-16T14:28:06.876Z,38.69
2018-08-16T14:30:35.248Z,39.24
2018-08-16T14:33:03.609Z,39.49
2018-08-16T14:35:31.953Z,39.67
2018-08-16T14:38:00.295Z,39.02
2018-08-16T14:40:28.656Z,36.20
2018-08-16T14:42:57.403Z,35.93
2018-08-16T14:45:25.782Z,37.52
2018-08-16T14:47:54.140Z,37.57
2018-08-16T14:50:22.523Z,37.76
2018-08-16T14:52:51.177Z,38.25
2018-08-16T14:55:19.636Z,38.47
2018-08-16T14:57:47.992Z,38.45
2018-08-16T15:00:16.362Z,38.30
2018-08-16T15:02:44.700Z,37.44
2018-08-16T15:05:13.053Z,37.66
2018-08-16T15:07:42.235Z,37.35
2018-08-16T15:10:10.600Z,37.23
2018-08-16T15:12:38.929Z,35.05
2018-08-16T15:15:07.300Z,36.59
2018-08-16T15:17:35.688Z,35.62
2018-08-16T15:20:04.162Z,34.37
2018-08-16T15:22:32.512Z,34.67
2018-08-16T15:25:00.841Z,35.29
2018-08-16T15:27:29.224Z,35.33
2018-08-16T15:29:57.585Z,35.26
2018-08-16T15:32:25.957Z,35.66
2018-08-16T15:34:54.283Z,35.10
2018-08-16T15:37:23.858Z,33.16
2018-08-16T15:39:52.245Z,32.44
2018-08-16T15:42:20.620Z,32.66
2018-08-16T15:44:49.638Z,32.94
2018-08-16T15:47:18.048Z,33.17
2018-08-16T15:49:46.420Z,32.86
2018-08-16T15:52:15.584Z,33.19
2018-08-16T15:54:43.912Z,32.57
2018-08-16T15:57:12.444Z,33.01
2018-08-16T15:59:41.239Z,33.25
2018-08-16T16:02:10.644Z,33.47
2018-08-16T16:04:39.000Z,33.25
2018-08-16T16:07:07.630Z,32.87
2018-08-16T16:09:35.972Z,32.76
2018-08-16T16:12:04.367Z,32.52
2018-08-16T16:14:32.729Z,32.93
2018-08-16T16:17:01.142Z,32.54
2018-08-16T16:19:29.545Z,32.66
2018-08-16T16:21:57.893Z,32.39
2018-08-16T16:24:26.248Z,32.31
2018-08-16T16:26:54.608Z,31.71
2018-08-16T16:29:22.933Z,31.25
2018-08-16T16:31:51.289Z,30.75
2018-08-16T16:34:19.632Z,30.74
2018-08-16T16:36:48.300Z,30.94
2018-08-16T16:39:16.677Z,30.72
2018-08-16T16:41:45.040Z,30.33
2018-08-16T16:44:13.424Z,30.29
2018-08-16T16:46:41.833Z,30.16
2018-08-16T16:49:10.213Z,29.98
2018-08-16T16:51:38.588Z,29.77
2018-08-16T16:54:07.141Z,29.72
2018-08-16T16:56:35.580Z,29.34
2018-08-16T16:59:03.977Z,29.65
2018-08-16T17:01:32.416Z,29.88
2018-08-16T17:04:00.804Z,29.78
2018-08-16T17:06:29.171Z,29.72
2018-08-16T17:08:57.538Z,29.46
2018-08-16T17:11:25.928Z,29.76
2018-08-16T17:13:54.572Z,29.40
2018-08-16T17:16:23.704Z,29.82
2018-08-16T17:18:52.087Z,29.65
2018-08-16T17:21:20.452Z,29.63
2018-08-16T17:23:48.780Z,29.78
2018-08-16T17:26:17.171Z,29.49
2018-08-16T17:28:46.080Z,29.39
2018-08-16T17:31:14.433Z,29.33
2018-08-16T17:33:42.801Z,29.58
2018-08-16T17:36:11.145Z,29.26
2018-08-16T17:38:39.521Z,29.28
2018-08-16T17:41:08.016Z,28.92
2018-08-16T17:43:37.452Z,28.95
2018-08-16T17:46:06.400Z,28.80
2018-08-16T17:48:34.788Z,28.76
2018-08-16T17:51:03.148Z,28.87
2018-08-16T17:53:31.504Z,28.80
2018-08-16T17:56:00.076Z,28.52
2018-08-16T17:58:28.448Z,28.46
2018-08-16T18:00:56.876Z,28.53
2018-08-16T18:03:25.192Z,28.19
2018-08-16T18:05:53.591Z,27.91
2018-08-16T18:08:21.988Z,27.63
2018-08-16T18:10:50.350Z,27.39
2018-08-16T18:13:18.745Z,27.24
2018-08-16T18:15:47.112Z,27.17
2018-08-16T18:18:15.472Z,26.98
2018-08-16T18:20:43.807Z,26.81
2018-08-16T18:23:12.189Z,26.60
2018-08-16T18:25:41.405Z,26.29
2018-08-16T18:28:09.780Z,26.00
2018-08-16T18:30:38.152Z,25.62
2018-08-16T18:33:07.540Z,25.31
2018-08-16T18:35:36.008Z,24.99
2018-08-16T18:38:04.397Z,24.89
2018-08-16T18:40:32.780Z,24.57
2018-08-16T18:43:01.144Z,24.33
2018-08-16T18:45:30.764Z,23.93
2018-08-16T18:47:59.188Z,23.68
2018-08-16T18:50:27.655Z,23.48
2018-08-16T18:52:56.012Z,23.28
2018-08-16T18:55:25.253Z,22.94
2018-08-16T18:57:53.645Z,22.76
2018-08-16T19:00:21.989Z,22.58
2018-08-16T19:02:50.357Z,22.55
2018-08-16T19:05:18.775Z,22.63
2018-08-16T19:07:47.145Z,22.47
2018-08-16T19:10:16.493Z,22.34
2018-08-16T19:12:45.940Z,22.17
2018-08-16T19:15:14.299Z,21.90
2018-08-16T19:17:42.717Z,21.76
2018-08-16T19:20:11.108Z,21.63
2018-08-16T19:22:39.547Z,21.50
2018-08-16T19:25:10.442Z,21.31
2018-08-16T19:27:38.907Z,21.17
2018-08-16T19:30:07.302Z,21.18
2018-08-16T19:32:35.819Z,21.18
2018-08-16T19:35:04.668Z,21.09
2018-08-16T19:37:33.468Z,21.12
2018-08-16T19:40:01.833Z,21.08
2018-08-16T19:42:30.227Z,20.90
2018-08-16T19:44:58.591Z,20.79
2018-08-16T19:47:26.956Z,20.73
2018-08-16T19:49:55.645Z,20.65
2018-08-16T19:52:23.988Z,20.55
2018-08-16T19:54:52.329Z,20.43
2018-08-16T19:57:20.676Z,20.26
2018-08-16T19:59:49.042Z,20.22
2018-08-16T20:02:17.363Z,20.10
2018-08-16T20:04:45.812Z,20.05
2018-08-16T20:07:14.088Z,20.13
2018-08-16T20:09:42.496Z,20.01
2018-08-16T20:12:11.328Z,20.09
2018-08-16T20:14:39.708Z,19.92
2018-08-16T20:17:08.408Z,20.02
2018-08-16T20:19:36.860Z,20.13
2018-08-16T20:22:10.941Z,19.87
2018-08-16T20:24:39.292Z,19.76
2018-08-16T20:27:07.322Z,19.71
2018-08-16T20:29:35.692Z,19.49
2018-08-16T20:32:04.075Z,19.42
2018-08-16T20:34:32.440Z,19.40
2018-08-16T20:37:00.820Z,19.41
2018-08-16T20:39:29.192Z,19.32
2018-08-16T20:41:57.569Z,19.27
2018-08-16T20:44:26.089Z,19.11
2018-08-16T20:46:54.468Z,19.14
2018-08-16T20:49:22.911Z,19.14
2018-08-16T20:51:51.252Z,19.15
2018-08-16T20:54:19.656Z,19.13
2018-08-16T20:56:48.131Z,19.11
2018-08-16T20:59:17.480Z,19.22
2018-08-16T21:01:45.808Z,19.18
2018-08-16T21:04:14.152Z,19.03
2018-08-16T21:06:42.845Z,18.84
2018-08-16T21:09:11.724Z,18.94
2018-08-16T21:11:40.169Z,19.05
2018-08-16T21:14:08.783Z,19.05
2018-08-16T21:16:37.132Z,18.85
2018-08-16T21:19:05.499Z,19.17
2018-08-16T21:21:33.886Z,19.20
2018-08-16T21:24:02.227Z,18.96
2018-08-16T21:26:30.569Z,19.02
2018-08-16T21:28:58.940Z,18.95
2018-08-16T21:31:27.292Z,19.08
2018-08-16T21:33:55.656Z,18.91
2018-08-16T21:36:24.345Z,18.79
2018-08-16T21:38:52.703Z,18.79
2018-08-16T21:41:21.059Z,18.76
2018-08-16T21:43:49.788Z,18.85
2018-08-16T21:46:18.444Z,18.83
2018-08-16T21:48:47.108Z,18.71
2018-08-16T21:51:15.439Z,18.55
2018-08-16T21:53:43.801Z,18.45
2018-08-16T21:56:12.712Z,18.46
2018-08-16T21:58:41.108Z,18.54
2018-08-16T22:01:09.496Z,18.44
2018-08-16T22:03:37.860Z,18.26
2018-08-16T22:06:11.321Z,18.07
2018-08-16T22:08:49.769Z,17.72
2018-08-16T22:11:18.227Z,17.67
2018-08-16T22:13:46.637Z,17.71
2018-08-16T22:16:15.861Z,17.72
2018-08-16T22:18:44.260Z,17.71
2018-08-16T22:21:12.660Z,17.71
2018-08-16T22:23:41.635Z,17.76
2018-08-16T22:26:10.056Z,17.73
2018-08-16T22:28:38.391Z,17.58
2018-08-16T22:31:06.943Z,17.50
2018-08-16T22:33:35.292Z,17.41
2018-08-16T22:36:03.644Z,17.31
2018-08-16T22:38:31.977Z,17.30
2018-08-16T22:41:00.355Z,17.41
2018-08-16T22:43:28.712Z,17.46
2018-08-16T22:45:57.120Z,17.55
2018-08-16T22:48:25.712Z,17.40
2018-08-16T22:50:54.115Z,17.41
2018-08-16T22:53:22.437Z,17.21
2018-08-16T22:55:50.796Z,17.41
2018-08-16T22:58:19.808Z,17.37
2018-08-16T23:00:48.152Z,17.52
2018-08-16T23:03:17.400Z,17.49
2018-08-16T23:05:45.776Z,17.31
2018-08-16T23:08:14.182Z,17.11
2018-08-16T23:10:42.536Z,16.86
2018-08-16T23:13:10.871Z,16.85
2018-08-16T23:15:39.248Z,16.85
2018-08-16T23:18:07.700Z,16.83
2018-08-16T23:20:36.057Z,16.84
2018-08-16T23:23:04.413Z,16.75
2018-08-16T23:25:32.791Z,16.73
2018-08-16T23:28:01.428Z,16.70
2018-08-16T23:30:29.776Z,16.86
2018-08-16T23:32:58.104Z,16.80
2018-08-16T23:35:26.488Z,16.81
2018-08-16T23:37:54.861Z,16.75
2018-08-16T23:40:23.260Z,16.61
2018-08-16T23:42:51.644Z,16.59
2018-08-16T23:45:20.283Z,16.69
2018-08-16T23:47:59.861Z,16.59
2018-08-16T23:50:28.472Z,16.59
2018-08-16T23:52:56.833Z,16.47
2018-08-16T23:55:25.249Z,16.55
2018-08-16T23:57:53.617Z,16.34
